createdAt,value
2023-02-14T00:03:31.089Z,3.01
2023-02-14T00:08:35.889Z,2.76
2023-02-14T00:14:02.006Z,2.76
2023-02-14T00:19:06.435Z,2.91
2023-02-14T00:24:13.317Z,3.27
2023-02-14T00:29:21.178Z,3.40
2023-02-14T00:34:27.816Z,2.96
2023-02-14T00:39:32.527Z,3.29
2023-02-14T00:44:38.445Z,3.18
2023-02-14T00:49:43.162Z,3.09
2023-02-14T00:54:47.733Z,2.89
2023-02-14T00:59:53.822Z,2.90
2023-02-14T01:04:58.651Z,2.89
2023-02-14T01:10:03.113Z,2.96
2023-02-14T01:15:10.563Z,2.82
2023-02-14T01:20:15.932Z,2.90
2023-02-14T01:25:20.503Z,2.77
2023-02-14T01:30:27.139Z,2.88
2023-02-14T01:35:31.956Z,2.60
2023-02-14T01:40:36.415Z,2.94
2023-02-14T01:45:43.807Z,2.65
2023-02-14T01:50:50.712Z,3.10
2023-02-14T01:56:03.942Z,2.65
2023-02-14T02:01:10.153Z,2.96
2023-02-14T02:06:18.160Z,2.88
2023-02-14T02:11:22.695Z,2.80
2023-02-14T02:16:48.756Z,2.87
2023-02-14T02:22:21.633Z,2.53
2023-02-14T02:28:02.705Z,3.18
2023-02-14T02:33:49.622Z,2.97
2023-02-14T02:39:11.837Z,2.88
2023-02-14T02:44:20.817Z,3.33
2023-02-14T02:49:57.737Z,3.45
2023-02-14T02:55:09.194Z,3.36
2023-02-14T03:00:16.521Z,3.40
2023-02-14T03:05:21.437Z,3.82
2023-02-14T03:10:33.531Z,3.49
2023-02-14T03:15:54.158Z,3.39
2023-02-14T03:21:06.232Z,3.60
2023-02-14T03:26:17.742Z,4.00
2023-02-14T03:31:31.310Z,3.39
2023-02-14T03:36:42.547Z,3.66
2023-02-14T03:41:54.628Z,3.31
2023-02-14T03:47:02.422Z,3.66
2023-02-14T03:52:11.183Z,2.82
2023-02-14T03:57:22.248Z,3.84
2023-02-14T04:02:35.555Z,3.61
2023-02-14T04:07:49.273Z,3.35
2023-02-14T04:12:58.759Z,3.17
2023-02-14T04:18:38.542Z,3.57
2023-02-14T04:23:46.567Z,3.71
2023-02-14T04:28:55.811Z,3.45
2023-02-14T04:34:03.859Z,3.37
2023-02-14T04:39:11.661Z,3.20
2023-02-14T04:44:21.011Z,3.65
2023-02-14T04:49:29.549Z,3.54
2023-02-14T04:54:37.654Z,3.00
2023-02-14T04:59:47.072Z,2.91
2023-02-14T05:04:54.801Z,3.28
2023-02-14T05:10:02.616Z,3.16
2023-02-14T05:15:12.566Z,2.92
2023-02-14T05:20:20.316Z,2.97
2023-02-14T05:25:29.517Z,2.95
2023-02-14T05:30:40.006Z,3.01
2023-02-14T05:35:48.190Z,3.12
2023-02-14T05:40:56.117Z,3.28
2023-02-14T05:46:05.633Z,3.38
2023-02-14T05:51:14.417Z,3.73
2023-02-14T05:56:21.215Z,3.45
2023-02-14T06:01:29.824Z,3.48
2023-02-14T06:06:37.603Z,3.50
2023-02-14T06:11:45.683Z,3.47
2023-02-14T06:16:55.041Z,3.70
2023-02-14T06:22:02.806Z,3.70
2023-02-14T06:27:09.029Z,3.15
2023-02-14T06:32:17.968Z,3.26
2023-02-14T06:37:26.104Z,3.48
2023-02-14T06:42:33.786Z,3.25
2023-02-14T06:47:43.116Z,3.54
2023-02-14T06:52:51.809Z,3.60
2023-02-14T06:57:59.509Z,3.26
2023-02-14T07:03:06.954Z,3.27
2023-02-14T07:08:14.438Z,3.17
2023-02-14T07:13:21.689Z,3.68
2023-02-14T07:18:30.236Z,3.74
2023-02-14T07:23:37.062Z,3.33
2023-02-14T07:28:45.180Z,3.77
2023-02-14T07:33:54.935Z,3.78
2023-02-14T07:39:01.560Z,3.74
2023-02-14T07:44:08.732Z,3.29
2023-02-14T07:49:17.709Z,3.74
2023-02-14T07:54:26.119Z,3.77
2023-02-14T07:59:33.598Z,4.35
2023-02-14T08:04:42.539Z,3.51
2023-02-14T08:09:50.097Z,4.08
2023-02-14T08:15:16.833Z,3.64
2023-02-14T08:20:25.339Z,4.11
2023-02-14T08:25:33.138Z,4.23
2023-02-14T08:30:40.964Z,4.16
2023-02-14T08:35:50.697Z,4.00
2023-02-14T08:41:05.114Z,4.20
2023-02-14T08:46:15.567Z,4.09
2023-02-14T08:51:26.729Z,3.79
2023-02-14T08:56:34.583Z,4.00
2023-02-14T09:01:45.368Z,4.35
2023-02-14T09:06:54.784Z,4.37
2023-02-14T09:12:06.865Z,4.59
2023-02-14T09:17:16.008Z,4.44
2023-02-14T09:22:25.091Z,4.15
2023-02-14T09:27:33.170Z,4.61
2023-02-14T09:32:41.758Z,4.70
2023-02-14T09:38:10.362Z,4.55
2023-02-14T09:43:25.284Z,4.60
2023-02-14T09:48:42.049Z,4.92
2023-02-14T09:53:57.437Z,5.26
2023-02-14T09:59:12.325Z,5.19
2023-02-14T10:04:29.250Z,4.84
2023-02-14T10:10:02.399Z,4.42
2023-02-14T10:15:18.010Z,4.57
2023-02-14T10:20:30.733Z,5.10
2023-02-14T10:25:47.393Z,5.10
2023-02-14T10:31:05.637Z,5.17
2023-02-14T10:36:22.719Z,4.51
2023-02-14T10:41:42.003Z,4.94
2023-02-14T10:46:57.422Z,5.10
2023-02-14T10:52:14.730Z,4.94
2023-02-14T10:57:29.028Z,4.70
2023-02-14T11:02:40.389Z,5.31
2023-02-14T11:07:46.608Z,5.31
2023-02-14T11:12:53.485Z,5.04
2023-02-14T11:18:19.037Z,5.50
2023-02-14T11:23:26.958Z,4.93
2023-02-14T11:28:37.413Z,5.06
2023-02-14T11:33:51.370Z,5.83
2023-02-14T11:39:09.487Z,5.42
2023-02-14T11:44:23.232Z,6.03
2023-02-14T11:49:34.137Z,5.99
2023-02-14T11:54:45.402Z,6.16
2023-02-14T11:59:57.173Z,6.18
2023-02-14T12:05:08.014Z,5.98
2023-02-14T12:10:28.983Z,6.69
2023-02-14T12:15:41.024Z,7.03
2023-02-14T12:20:56.742Z,6.45
2023-02-14T12:26:06.958Z,6.91
2023-02-14T12:31:14.814Z,6.62
2023-02-14T12:36:36.533Z,6.60
2023-02-14T12:41:51.784Z,6.14
2023-02-14T12:47:11.478Z,7.16
2023-02-14T12:52:37.233Z,7.06
2023-02-14T12:57:47.076Z,7.56
2023-02-14T13:03:23.268Z,7.45
2023-02-14T13:09:02.042Z,6.82
2023-02-14T13:14:24.307Z,6.96
2023-02-14T13:19:44.569Z,6.14
2023-02-14T13:24:55.320Z,6.35
2023-02-14T13:30:05.161Z,6.30
2023-02-14T13:35:20.635Z,6.53
2023-02-14T13:40:30.679Z,6.54
2023-02-14T13:46:08.040Z,6.69
2023-02-14T13:51:15.613Z,6.27
2023-02-14T13:56:43.472Z,6.20
2023-02-14T14:01:52.157Z,6.06
2023-02-14T14:07:23.840Z,6.20
2023-02-14T14:12:44.629Z,5.71
2023-02-14T14:18:11.072Z,5.79
2023-02-14T14:23:39.030Z,5.54
2023-02-14T14:28:49.113Z,5.78
2023-02-14T14:34:01.329Z,5.67
2023-02-14T14:39:11.938Z,5.60
2023-02-14T14:44:18.104Z,5.39
2023-02-14T14:49:23.100Z,5.73
2023-02-14T14:54:33.132Z,5.52
2023-02-14T14:59:40.317Z,5.04
2023-02-14T15:04:46.134Z,5.13
2023-02-14T15:09:53.333Z,5.21
2023-02-14T15:15:00.958Z,5.12
2023-02-14T15:20:11.940Z,5.14
2023-02-14T15:25:22.248Z,5.49
2023-02-14T15:30:34.046Z,5.24
2023-02-14T15:35:44.422Z,4.86
2023-02-14T15:40:55.045Z,5.09
2023-02-14T15:46:17.586Z,5.19
2023-02-14T15:51:27.998Z,5.15
2023-02-14T15:56:39.212Z,4.80
2023-02-14T16:01:53.262Z,4.54
2023-02-14T16:07:09.670Z,4.90
2023-02-14T16:12:33.914Z,4.76
2023-02-14T16:17:40.286Z,4.99
2023-02-14T16:22:44.648Z,5.10
2023-02-14T16:27:51.360Z,4.36
2023-02-14T16:32:57.269Z,4.98
2023-02-14T16:38:01.438Z,5.05
2023-02-14T16:43:07.487Z,4.92
2023-02-14T16:48:11.710Z,4.61
2023-02-14T16:53:27.338Z,4.76
2023-02-14T16:58:36.327Z,4.79
2023-02-14T17:03:44.762Z,4.66
2023-02-14T17:08:52.866Z,4.67
2023-02-14T17:13:59.348Z,4.86
2023-02-14T17:19:04.628Z,4.57
2023-02-14T17:24:10.632Z,4.52
2023-02-14T17:29:16.992Z,4.67
2023-02-14T17:34:21.661Z,5.03
2023-02-14T17:39:26.260Z,4.79
2023-02-14T17:44:36.014Z,4.46
2023-02-14T17:49:41.996Z,4.49
2023-02-14T17:54:46.262Z,4.84
2023-02-14T17:59:52.356Z,4.44
2023-02-14T18:04:57.902Z,4.66
2023-02-14T18:10:02.433Z,4.98
2023-02-14T18:15:09.416Z,4.85
2023-02-14T18:20:14.352Z,4.53
2023-02-14T18:25:19.061Z,4.98
2023-02-14T18:30:25.531Z,5.11
2023-02-14T18:35:30.224Z,5.18
2023-02-14T18:40:35.219Z,5.32
2023-02-14T18:45:41.834Z,4.79
2023-02-14T18:50:47.650Z,5.10
2023-02-14T18:55:52.395Z,4.63
2023-02-14T19:00:59.371Z,4.09
2023-02-14T19:06:04.756Z,3.96
2023-02-14T19:11:12.107Z,4.07
2023-02-14T19:16:20.716Z,4.48
2023-02-14T19:21:28.229Z,4.85
2023-02-14T19:26:35.069Z,4.80
2023-02-14T19:31:43.521Z,4.53
2023-02-14T19:36:49.116Z,4.63
2023-02-14T19:41:53.794Z,4.67
2023-02-14T19:47:04.204Z,4.60
2023-02-14T19:52:25.798Z,5.08
2023-02-14T19:57:31.130Z,5.26
2023-02-14T20:02:37.280Z,5.06
2023-02-14T20:07:43.463Z,4.85
2023-02-14T20:12:47.761Z,5.04
2023-02-14T20:17:53.681Z,4.69
2023-02-14T20:22:57.817Z,4.13
2023-02-14T20:28:02.629Z,4.82
2023-02-14T20:33:08.788Z,4.92
2023-02-14T20:38:13.439Z,4.48
2023-02-14T20:43:17.986Z,4.57
2023-02-14T20:48:24.095Z,4.60
2023-02-14T20:53:29.363Z,5.34
2023-02-14T20:58:34.691Z,4.21
2023-02-14T21:03:41.793Z,3.86
2023-02-14T21:08:46.667Z,4.03
2023-02-14T21:13:52.147Z,3.62
2023-02-14T21:19:00.314Z,3.50
2023-02-14T21:24:06.776Z,3.52
2023-02-14T21:29:11.594Z,3.73
2023-02-14T21:34:18.043Z,3.47
2023-02-14T21:39:27.554Z,4.47
2023-02-14T21:44:49.300Z,4.04
2023-02-14T21:50:12.240Z,4.44
2023-02-14T21:55:17.632Z,3.83
2023-02-14T22:00:23.541Z,4.27
2023-02-14T22:05:29.532Z,3.89
2023-02-14T22:10:33.853Z,3.86
2023-02-14T22:15:41.549Z,4.26
2023-02-14T22:20:47.986Z,4.43
2023-02-14T22:25:52.561Z,4.40
2023-02-14T22:31:01.243Z,4.61
2023-02-14T22:36:08.554Z,3.50
2023-02-14T22:41:15.410Z,3.22
2023-02-14T22:46:21.963Z,3.37
2023-02-14T22:51:30.925Z,4.58
2023-02-14T22:56:38.809Z,5.24
2023-02-14T23:01:43.419Z,4.27
2023-02-14T23:06:50.282Z,4.03
2023-02-14T23:11:56.305Z,4.01
2023-02-14T23:17:14.416Z,4.13
2023-02-14T23:22:22.060Z,3.85
2023-02-14T23:27:31.044Z,4.47
2023-02-14T23:32:35.478Z,4.11
2023-02-14T23:37:41.865Z,3.94
2023-02-14T23:42:46.211Z,3.72
2023-02-14T23:47:50.744Z,3.54
2023-02-14T23:52:57.523Z,3.38
2023-02-14T23:58:02.053Z,3.13
